createdAt,value
2023-03-19T00:04:30.184Z,13.8
2023-03-19T00:09:36.390Z,13.8
2023-03-19T00:14:42.601Z,13.7
2023-03-19T00:19:48.819Z,13.7
2023-03-19T00:24:55.032Z,13.6
2023-03-19T00:30:01.245Z,13.6
2023-03-19T00:35:07.454Z,13.5
2023-03-19T00:40:13.672Z,13.5
2023-03-19T00:45:19.880Z,13.4
2023-03-19T00:50:26.098Z,13.4
2023-03-19T00:55:32.587Z,13.4
2023-03-19T01:00:38.633Z,13.3
2023-03-19T01:05:44.883Z,13.3
2023-03-19T01:10:50.962Z,13.2
2023-03-19T01:15:57.141Z,13.2
2023-03-19T01:21:02.385Z,13.2
2023-03-19T01:26:08.590Z,13.2
2023-03-19T01:31:13.910Z,13.2
2023-03-19T01:36:20.057Z,13.2
2023-03-19T01:41:26.264Z,13.2
2023-03-19T01:46:32.580Z,13.1
2023-03-19T01:51:38.658Z,13.1
2023-03-19T01:56:44.872Z,13.1
2023-03-19T02:01:51.167Z,13.0
2023-03-19T02:06:57.287Z,13.0
2023-03-19T02:12:03.496Z,13.0
2023-03-19T02:17:09.699Z,12.9
2023-03-19T02:22:15.908Z,12.9
2023-03-19T02:27:22.141Z,12.9
2023-03-19T02:32:28.322Z,12.9
2023-03-19T02:37:34.530Z,12.9
2023-03-19T02:42:40.760Z,12.9
2023-03-19T02:47:46.942Z,12.9
2023-03-19T02:52:53.155Z,12.9
2023-03-19T02:57:59.359Z,12.9
2023-03-19T03:03:05.561Z,12.9
2023-03-19T03:08:11.786Z,12.9
2023-03-19T03:13:17.987Z,12.9
2023-03-19T03:18:23.229Z,12.9
2023-03-19T03:23:29.431Z,12.9
2023-03-19T03:28:34.689Z,12.9
2023-03-19T03:33:40.880Z,12.9
2023-03-19T03:38:47.090Z,13.0
2023-03-19T03:43:53.298Z,13.0
2023-03-19T03:48:59.510Z,13.0
2023-03-19T03:54:05.715Z,13.0
2023-03-19T03:59:11.949Z,13.0
2023-03-19T04:04:18.134Z,13.0
2023-03-19T04:09:24.334Z,13.0
2023-03-19T04:14:30.564Z,13.0
2023-03-19T04:19:36.766Z,13.0
2023-03-19T04:24:42.983Z,13.0
2023-03-19T04:29:49.181Z,13.0
2023-03-19T04:34:55.393Z,13.0
2023-03-19T04:40:01.603Z,12.9
2023-03-19T04:45:07.807Z,12.9
2023-03-19T04:50:14.007Z,12.8
2023-03-19T04:55:20.229Z,12.8
2023-03-19T05:00:26.437Z,12.7
2023-03-19T05:05:32.643Z,12.6
2023-03-19T05:10:38.850Z,12.6
2023-03-19T05:15:44.143Z,12.5
2023-03-19T05:20:50.290Z,12.4
2023-03-19T05:25:56.499Z,12.4
2023-03-19T05:31:01.825Z,12.3
2023-03-19T05:36:07.944Z,12.2
2023-03-19T05:41:14.150Z,12.1
2023-03-19T05:46:20.378Z,12.1
2023-03-19T05:51:26.570Z,12.0
2023-03-19T05:56:32.768Z,12.0
2023-03-19T06:01:39.093Z,11.9
2023-03-19T06:06:45.186Z,11.9
2023-03-19T06:11:51.386Z,11.8
2023-03-19T06:16:57.594Z,11.8
2023-03-19T06:22:03.815Z,11.7
2023-03-19T06:27:10.011Z,11.7
2023-03-19T06:32:16.220Z,11.7
2023-03-19T06:37:22.431Z,11.7
2023-03-19T06:42:28.710Z,11.7
2023-03-19T06:47:34.852Z,11.7
2023-03-19T06:52:41.080Z,11.7
2023-03-19T06:57:47.271Z,11.8
2023-03-19T07:02:53.479Z,11.9
2023-03-19T07:07:59.692Z,12.0
2023-03-19T07:13:05.898Z,12.1
2023-03-19T07:18:11.158Z,12.1
2023-03-19T07:23:17.338Z,12.1
2023-03-19T07:28:22.573Z,12.2
2023-03-19T07:33:28.792Z,12.3
2023-03-19T07:38:34.989Z,12.4
2023-03-19T07:43:41.193Z,12.4
2023-03-19T07:48:47.397Z,12.6
2023-03-19T07:53:53.609Z,12.8
2023-03-19T07:58:59.820Z,13.1
2023-03-19T08:04:06.127Z,13.3
2023-03-19T08:09:12.238Z,13.5
2023-03-19T08:14:18.450Z,13.8
2023-03-19T08:19:24.674Z,14.0
2023-03-19T08:24:30.889Z,14.2
2023-03-19T08:29:37.103Z,14.4
2023-03-19T08:34:43.311Z,14.6
2023-03-19T08:39:49.576Z,14.7
2023-03-19T08:44:55.734Z,14.8
2023-03-19T08:50:02.037Z,14.9
2023-03-19T08:55:08.174Z,14.9
2023-03-19T09:00:14.387Z,15.0
2023-03-19T09:05:20.584Z,15.1
2023-03-19T09:10:26.835Z,15.2
2023-03-19T09:15:33.225Z,15.3
2023-03-19T09:20:38.246Z,15.5
2023-03-19T09:25:44.449Z,15.7
2023-03-19T09:30:49.773Z,15.7
2023-03-19T09:35:55.949Z,15.8
2023-03-19T09:41:02.116Z,15.9
2023-03-19T09:46:08.309Z,16.0
2023-03-19T09:51:14.522Z,16.1
2023-03-19T09:56:20.730Z,16.2
2023-03-19T10:01:26.957Z,16.4
2023-03-19T10:06:33.210Z,16.4
2023-03-19T10:11:39.361Z,16.4
2023-03-19T10:16:45.575Z,16.5
2023-03-19T10:21:51.783Z,16.7
2023-03-19T10:26:57.985Z,16.8
2023-03-19T10:32:04.193Z,16.9
2023-03-19T10:37:10.404Z,17.0
2023-03-19T10:42:16.649Z,17.1
2023-03-19T10:47:22.867Z,17.2
2023-03-19T10:52:29.042Z,17.2
2023-03-19T10:57:35.240Z,17.4
2023-03-19T11:02:41.443Z,17.5
2023-03-19T11:07:47.661Z,17.7
2023-03-19T11:12:53.860Z,17.8
2023-03-19T11:17:59.107Z,18.0
2023-03-19T11:23:05.302Z,18.2
2023-03-19T11:28:11.536Z,18.3
2023-03-19T11:33:16.769Z,18.5
2023-03-19T11:38:22.963Z,18.6
2023-03-19T11:43:29.183Z,18.7
2023-03-19T11:48:35.369Z,18.6
2023-03-19T11:53:41.579Z,18.6
2023-03-19T11:58:47.793Z,18.5
2023-03-19T12:03:54.038Z,18.4
2023-03-19T12:09:00.210Z,18.3
2023-03-19T12:14:06.412Z,18.2
2023-03-19T12:19:12.625Z,18.0
2023-03-19T12:24:18.837Z,17.9
2023-03-19T12:29:25.185Z,17.8
2023-03-19T12:34:31.251Z,17.7
2023-03-19T12:39:37.464Z,17.7
2023-03-19T12:44:43.680Z,17.6
2023-03-19T12:49:48.894Z,17.6
2023-03-19T12:54:55.096Z,17.6
2023-03-19T13:00:01.346Z,17.7
2023-03-19T13:05:07.588Z,17.8
2023-03-19T13:10:13.734Z,17.9
2023-03-19T13:15:19.975Z,17.9
2023-03-19T13:20:25.184Z,17.8
2023-03-19T13:25:31.371Z,17.7
2023-03-19T13:30:36.625Z,17.7
2023-03-19T13:35:42.859Z,17.7
2023-03-19T13:40:49.042Z,17.8
2023-03-19T13:45:55.560Z,18.1
2023-03-19T13:51:01.477Z,18.2
2023-03-19T13:56:15.723Z,18.3
2023-03-19T14:01:13.945Z,18.3
2023-03-19T14:06:20.112Z,18.2
2023-03-19T14:11:26.296Z,18.2
2023-03-19T14:16:32.543Z,18.1
2023-03-19T14:21:38.705Z,18.0
2023-03-19T14:26:44.937Z,18.0
2023-03-19T14:31:51.171Z,18.1
2023-03-19T14:36:57.331Z,18.0
2023-03-19T14:42:03.552Z,18.0
2023-03-19T14:47:09.879Z,18.1
2023-03-19T14:52:15.959Z,18.2
2023-03-19T14:57:22.197Z,18.4
2023-03-19T15:02:28.377Z,18.5
2023-03-19T15:07:34.598Z,18.5
2023-03-19T15:12:40.811Z,18.6
2023-03-19T15:17:54.427Z,18.7
2023-03-19T15:22:52.241Z,18.7
2023-03-19T15:27:58.450Z,18.7
2023-03-19T15:33:13.880Z,18.6
2023-03-19T15:38:10.865Z,18.5
2023-03-19T15:43:17.079Z,18.4
2023-03-19T15:48:23.280Z,18.3
2023-03-19T15:53:29.502Z,18.2
2023-03-19T15:58:35.699Z,18.1
2023-03-19T16:03:41.932Z,18.0
2023-03-19T16:08:48.131Z,17.8
2023-03-19T16:13:54.386Z,17.6
2023-03-19T16:19:00.868Z,17.4
2023-03-19T16:24:06.739Z,17.1
2023-03-19T16:29:12.972Z,16.9
2023-03-19T16:34:19.155Z,16.7
2023-03-19T16:39:25.357Z,16.5
2023-03-19T16:44:31.725Z,16.4
2023-03-19T16:49:37.776Z,16.3
2023-03-19T16:54:43.986Z,16.1
2023-03-19T16:59:50.188Z,16.0
2023-03-19T17:04:56.440Z,15.9
2023-03-19T17:10:01.650Z,15.8
2023-03-19T17:15:07.854Z,15.7
2023-03-19T17:20:13.087Z,15.6
2023-03-19T17:25:19.299Z,15.5
2023-03-19T17:30:27.621Z,15.4
2023-03-19T17:35:30.851Z,15.2
2023-03-19T17:40:37.126Z,15.1
2023-03-19T17:45:43.160Z,14.9
2023-03-19T17:50:49.368Z,14.8
2023-03-19T17:55:55.594Z,14.6
2023-03-19T18:01:01.872Z,14.5
2023-03-19T18:06:08.024Z,14.3
2023-03-19T18:11:14.240Z,14.2
2023-03-19T18:16:20.489Z,14.1
2023-03-19T18:21:26.673Z,13.9
2023-03-19T18:26:32.877Z,13.8
2023-03-19T18:31:39.118Z,13.6
2023-03-19T18:36:45.296Z,13.5
2023-03-19T18:41:51.519Z,13.4
2023-03-19T18:46:57.725Z,13.3
2023-03-19T18:52:04.061Z,13.2
2023-03-19T18:57:10.155Z,13.1
2023-03-19T19:02:16.349Z,13.1
2023-03-19T19:07:22.555Z,13.0
2023-03-19T19:12:28.767Z,12.9
2023-03-19T19:17:34.968Z,12.8
2023-03-19T19:22:41.212Z,12.7
2023-03-19T19:27:46.432Z,12.6
2023-03-19T19:32:52.668Z,12.6
2023-03-19T19:37:57.858Z,12.5
2023-03-19T19:43:04.098Z,12.5
2023-03-19T19:48:10.274Z,12.4
2023-03-19T19:53:16.501Z,12.4
2023-03-19T19:58:22.713Z,12.4
2023-03-19T20:03:28.956Z,12.3
2023-03-19T20:08:35.129Z,12.3
2023-03-19T20:13:41.328Z,12.2
2023-03-19T20:18:47.549Z,12.2
2023-03-19T20:23:53.751Z,12.1
2023-03-19T20:28:59.941Z,12.1
2023-03-19T20:34:06.144Z,12.0
2023-03-19T20:39:12.358Z,12.0
2023-03-19T20:44:18.565Z,11.9
2023-03-19T20:49:24.774Z,11.9
2023-03-19T20:54:30.976Z,11.8
2023-03-19T20:59:37.187Z,11.8
2023-03-19T21:04:43.433Z,11.8
2023-03-19T21:09:49.603Z,11.8
2023-03-19T21:14:55.808Z,11.8
2023-03-19T21:20:02.028Z,11.8
2023-03-19T21:25:07.249Z,11.8
2023-03-19T21:30:13.461Z,11.7
2023-03-19T21:35:19.689Z,11.8
2023-03-19T21:40:24.911Z,11.8
2023-03-19T21:45:31.115Z,11.8
2023-03-19T21:50:37.332Z,11.8
2023-03-19T21:55:43.534Z,11.8
2023-03-19T22:00:49.816Z,11.8
2023-03-19T22:05:55.942Z,11.8
2023-03-19T22:11:02.156Z,11.8
2023-03-19T22:16:08.409Z,11.8
2023-03-19T22:21:14.573Z,11.8
2023-03-19T22:26:20.781Z,11.8
2023-03-19T22:31:27.037Z,11.8
2023-03-19T22:36:33.204Z,11.8
2023-03-19T22:41:39.410Z,11.8
2023-03-19T22:46:45.617Z,11.7
2023-03-19T22:51:51.880Z,11.7
2023-03-19T22:56:58.033Z,11.7
2023-03-19T23:02:04.240Z,11.6
